createdAt,value
2023-02-14T00:00:40.994Z,3.00
2023-02-14T00:01:44.716Z,3.00
2023-02-14T00:02:48.644Z,2.50
2023-02-14T00:03:52.619Z,2.50
2023-02-14T00:04:56.302Z,3.50
2023-02-14T00:05:59.773Z,2.50
2023-02-14T00:07:03.311Z,1.75
2023-02-14T00:08:06.971Z,2.75
2023-02-14T00:09:10.404Z,3.75
2023-02-14T00:10:14.034Z,2.75
2023-02-14T00:11:20.453Z,1.50
2023-02-14T00:12:24.138Z,1.75
2023-02-14T00:13:27.637Z,3.00
2023-02-14T00:14:31.067Z,3.00
2023-02-14T00:15:34.811Z,3.25
2023-02-14T00:16:38.520Z,3.50
2023-02-14T00:17:42.027Z,3.00
2023-02-14T00:18:45.627Z,4.00
2023-02-14T00:19:49.288Z,3.00
2023-02-14T00:20:52.971Z,3.00
2023-02-14T00:21:56.576Z,3.00
2023-02-14T00:23:00.024Z,2.50
2023-02-14T00:24:03.450Z,2.50
2023-02-14T00:25:06.916Z,3.00
2023-02-14T00:26:10.653Z,3.00
2023-02-14T00:27:14.299Z,2.25
2023-02-14T00:28:18.005Z,1.00
2023-02-14T00:29:21.458Z,1.00
2023-02-14T00:30:24.917Z,1.00
2023-02-14T00:31:28.476Z,1.50
2023-02-14T00:32:31.914Z,1.00
2023-02-14T00:33:35.401Z,1.50
2023-02-14T00:34:38.832Z,1.75
2023-02-14T00:35:42.275Z,1.50
2023-02-14T00:36:45.817Z,1.25
2023-02-14T00:37:49.225Z,0.50
2023-02-14T00:38:52.635Z,0.00
2023-02-14T00:39:56.213Z,0.00
2023-02-14T00:40:59.857Z,1.00
2023-02-14T00:42:03.493Z,2.00
2023-02-14T00:43:07.163Z,1.75
2023-02-14T00:44:10.525Z,1.00
2023-02-14T00:45:13.949Z,1.00
2023-02-14T00:46:17.434Z,1.00
2023-02-14T00:47:20.972Z,1.00
2023-02-14T00:48:24.487Z,0.50
2023-02-14T00:49:27.954Z,1.50
2023-02-14T00:50:31.346Z,1.00
2023-02-14T00:51:34.739Z,0.50
2023-02-14T00:52:38.177Z,0.75
2023-02-14T00:53:41.729Z,1.50
2023-02-14T00:54:45.478Z,1.00
2023-02-14T00:55:48.918Z,1.25
2023-02-14T00:56:52.315Z,0.50
2023-02-14T00:57:56.120Z,1.00
2023-02-14T00:58:59.494Z,1.50
2023-02-14T01:00:02.967Z,1.00
2023-02-14T01:01:06.454Z,0.25
2023-02-14T01:02:10.317Z,1.50
2023-02-14T01:03:14.065Z,2.00
2023-02-14T01:04:17.806Z,1.00
2023-02-14T01:05:21.922Z,1.75
2023-02-14T01:06:25.284Z,3.50
2023-02-14T01:07:28.734Z,4.20
2023-02-14T01:08:32.121Z,3.50
2023-02-14T01:09:35.715Z,2.50
2023-02-14T01:10:39.536Z,4.25
2023-02-14T01:11:43.130Z,4.50
2023-02-14T01:12:46.832Z,3.50
2023-02-14T01:13:50.321Z,3.50
2023-02-14T01:14:53.973Z,2.75
2023-02-14T01:15:57.615Z,2.00
2023-02-14T01:17:01.269Z,2.25
2023-02-14T01:18:04.646Z,3.00
2023-02-14T01:19:08.260Z,3.20
2023-02-14T01:20:11.775Z,3.50
2023-02-14T01:21:15.674Z,2.00
2023-02-14T01:22:19.009Z,5.25
2023-02-14T01:23:22.479Z,3.25
2023-02-14T01:24:26.244Z,2.00
2023-02-14T01:25:29.825Z,2.00
2023-02-14T01:26:33.310Z,2.50
2023-02-14T01:27:37.054Z,3.50
2023-02-14T01:28:40.803Z,2.00
2023-02-14T01:29:44.397Z,4.00
2023-02-14T01:30:47.899Z,4.00
2023-02-14T01:31:51.700Z,4.00
2023-02-14T01:32:55.391Z,3.25
2023-02-14T01:33:58.795Z,3.50
2023-02-14T01:35:02.320Z,3.50
2023-02-14T01:36:05.714Z,4.75
2023-02-14T01:37:09.433Z,4.50
2023-02-14T01:38:13.280Z,4.00
2023-02-14T01:39:17.018Z,4.50
2023-02-14T01:40:20.630Z,5.00
2023-02-14T01:41:24.082Z,4.00
2023-02-14T01:42:27.558Z,5.50
2023-02-14T01:43:31.539Z,5.00
2023-02-14T01:44:35.016Z,3.50
2023-02-14T01:45:38.561Z,3.50
2023-02-14T01:46:42.041Z,4.00
2023-02-14T01:47:45.470Z,5.00
2023-02-14T01:48:49.030Z,3.00
2023-02-14T01:49:52.601Z,1.75
2023-02-14T01:50:56.339Z,2.75
2023-02-14T01:51:59.680Z,4.00
2023-02-14T01:53:03.139Z,3.25
2023-02-14T01:54:06.592Z,3.50
2023-02-14T01:55:10.258Z,3.50
2023-02-14T01:56:13.654Z,3.50
2023-02-14T01:57:17.149Z,3.50
2023-02-14T01:58:20.523Z,2.50
2023-02-14T01:59:23.998Z,3.60
2023-02-14T02:00:27.370Z,4.25
2023-02-14T02:01:30.898Z,3.25
2023-02-14T02:02:34.391Z,3.00
2023-02-14T02:03:38.132Z,2.25
2023-02-14T02:04:41.786Z,3.00
2023-02-14T02:05:45.260Z,3.50
2023-02-14T02:06:48.593Z,4.00
2023-02-14T02:07:51.958Z,3.50
2023-02-14T02:08:55.415Z,4.00
2023-02-14T02:09:58.885Z,4.25
2023-02-14T02:11:02.342Z,3.00
2023-02-14T02:12:05.872Z,2.50
2023-02-14T02:13:09.164Z,2.25
2023-02-14T02:14:12.651Z,2.50
2023-02-14T02:15:16.119Z,3.00
2023-02-14T02:16:19.538Z,3.00
2023-02-14T02:17:22.995Z,3.50
2023-02-14T02:18:26.486Z,4.00
2023-02-14T02:19:29.936Z,3.00
2023-02-14T02:20:33.417Z,3.00
2023-02-14T02:21:36.751Z,3.50
2023-02-14T02:22:40.288Z,4.00
2023-02-14T02:23:43.659Z,4.00
2023-02-14T02:24:47.057Z,3.00
2023-02-14T02:25:50.368Z,3.50
2023-02-14T02:26:53.768Z,4.00
2023-02-14T02:27:57.311Z,3.50
2023-02-14T02:29:01.209Z,3.50
2023-02-14T02:30:04.974Z,2.50
2023-02-14T02:31:08.783Z,3.00
2023-02-14T02:32:12.357Z,3.00
2023-02-14T02:33:16.105Z,2.75
2023-02-14T02:34:19.698Z,2.25
2023-02-14T02:35:23.364Z,2.50
2023-02-14T02:36:26.906Z,4.50
2023-02-14T02:37:30.528Z,4.50
2023-02-14T02:38:34.309Z,2.75
2023-02-14T02:39:38.077Z,2.75
2023-02-14T02:40:41.684Z,2.50
2023-02-14T02:41:45.361Z,3.25
2023-02-14T02:42:48.994Z,2.00
2023-02-14T02:43:52.615Z,2.25
2023-02-14T02:44:56.244Z,2.00
2023-02-14T02:46:00.000Z,1.00
2023-02-14T02:47:03.479Z,2.00
2023-02-14T02:48:06.842Z,2.00
2023-02-14T02:49:10.244Z,2.00
2023-02-14T02:50:13.757Z,1.50
2023-02-14T02:51:17.512Z,2.00
2023-02-14T02:52:20.960Z,3.00
2023-02-14T02:53:24.455Z,2.50
2023-02-14T02:54:28.169Z,3.50
2023-02-14T02:55:31.931Z,1.25
2023-02-14T02:56:35.795Z,1.25
2023-02-14T02:57:39.415Z,1.00
2023-02-14T02:58:42.891Z,2.25
2023-02-14T02:59:46.452Z,4.25
2023-02-14T03:00:50.266Z,3.00
2023-02-14T03:01:53.991Z,3.00
2023-02-14T03:02:57.812Z,3.50
2023-02-14T03:04:01.555Z,2.50
2023-02-14T03:05:05.023Z,3.50
2023-02-14T03:06:08.357Z,2.00
2023-02-14T03:07:11.941Z,2.20
2023-02-14T03:08:15.340Z,2.50
2023-02-14T03:09:18.841Z,2.00
2023-02-14T03:10:22.211Z,1.50
2023-02-14T03:11:25.650Z,3.00
2023-02-14T03:12:29.191Z,3.50
2023-02-14T03:13:32.614Z,3.00
2023-02-14T03:14:36.078Z,4.50
2023-02-14T03:15:39.786Z,4.50
2023-02-14T03:16:43.365Z,6.50
2023-02-14T03:17:47.106Z,6.25
2023-02-14T03:18:50.825Z,5.00
2023-02-14T03:19:54.445Z,9.50
2023-02-14T03:20:58.386Z,12.50
2023-02-14T03:22:02.286Z,9.50
2023-02-14T03:23:06.006Z,5.25
2023-02-14T03:24:09.759Z,6.00
2023-02-14T03:25:13.412Z,5.75
2023-02-14T03:26:17.102Z,4.00
2023-02-14T03:27:20.791Z,3.50
2023-02-14T03:28:24.411Z,2.25
2023-02-14T03:29:28.026Z,4.00
2023-02-14T03:30:31.727Z,4.25
2023-02-14T03:31:35.258Z,3.50
2023-02-14T03:32:38.790Z,2.00
2023-02-14T03:33:42.299Z,3.00
2023-02-14T03:34:45.802Z,3.25
2023-02-14T03:35:49.216Z,5.50
2023-02-14T03:36:52.651Z,5.00
2023-02-14T03:37:56.054Z,4.00
2023-02-14T03:38:59.454Z,3.75
2023-02-14T03:40:03.275Z,3.25
2023-02-14T03:41:06.842Z,3.00
2023-02-14T03:42:10.316Z,3.50
2023-02-14T03:43:13.661Z,5.25
2023-02-14T03:44:17.136Z,3.75
2023-02-14T03:45:20.647Z,3.50
2023-02-14T03:46:24.147Z,4.00
2023-02-14T03:47:27.536Z,3.75
2023-02-14T03:48:30.971Z,3.00
2023-02-14T03:49:34.451Z,3.00
2023-02-14T03:50:37.820Z,4.75
2023-02-14T03:51:41.160Z,3.75
2023-02-14T03:52:44.764Z,3.50
2023-02-14T03:53:48.232Z,3.00
2023-02-14T03:54:51.639Z,3.00
2023-02-14T03:55:55.064Z,3.50
2023-02-14T03:56:58.565Z,2.50
2023-02-14T03:58:02.009Z,3.00
2023-02-14T03:59:05.631Z,3.25
2023-02-14T04:00:09.052Z,2.00
2023-02-14T04:01:12.566Z,3.00
2023-02-14T04:02:16.119Z,5.00
2023-02-14T04:03:19.527Z,6.00
2023-02-14T04:04:22.992Z,5.00
2023-02-14T04:05:26.447Z,3.50
2023-02-14T04:06:29.875Z,3.00
2023-02-14T04:07:33.399Z,3.25
2023-02-14T04:08:36.898Z,2.50
2023-02-14T04:09:40.482Z,2.25
2023-02-14T04:10:44.154Z,3.00
2023-02-14T04:11:47.578Z,2.75
2023-02-14T04:12:51.583Z,3.50
2023-02-14T04:13:55.158Z,4.50
2023-02-14T04:14:58.821Z,5.50
2023-02-14T04:16:02.388Z,4.00
2023-02-14T04:17:05.840Z,4.75
2023-02-14T04:18:09.399Z,4.50
2023-02-14T04:19:12.828Z,4.50
2023-02-14T04:20:16.200Z,5.75
2023-02-14T04:21:20.053Z,5.25
2023-02-14T04:22:23.713Z,5.50
2023-02-14T04:23:27.290Z,6.50
2023-02-14T04:24:30.970Z,4.00
2023-02-14T04:25:34.398Z,3.00
2023-02-14T04:26:37.797Z,4.00
2023-02-14T04:27:41.165Z,5.50
2023-02-14T04:28:44.939Z,5.50
2023-02-14T04:29:48.420Z,4.00
2023-02-14T04:30:51.912Z,3.75
2023-02-14T04:31:55.555Z,6.00
2023-02-14T04:32:59.434Z,7.75
2023-02-14T04:34:03.459Z,5.25
2023-02-14T04:35:07.164Z,5.00
2023-02-14T04:36:10.836Z,6.50
2023-02-14T04:37:14.253Z,5.75
2023-02-14T04:38:17.720Z,5.75
2023-02-14T04:39:21.395Z,6.00
2023-02-14T04:40:27.876Z,5.00
2023-02-14T04:41:31.673Z,3.50
2023-02-14T04:42:35.316Z,3.75
2023-02-14T04:43:38.753Z,3.75
2023-02-14T04:44:42.567Z,3.50
2023-02-14T04:45:46.275Z,4.00
2023-02-14T04:46:49.744Z,5.00
2023-02-14T04:47:53.306Z,4.25
2023-02-14T04:48:56.773Z,4.00
2023-02-14T04:50:00.532Z,4.50
2023-02-14T04:51:04.236Z,4.50
2023-02-14T04:52:07.618Z,4.00
2023-02-14T04:53:11.023Z,2.75
2023-02-14T04:54:14.787Z,3.00
2023-02-14T04:55:18.651Z,4.00
2023-02-14T04:56:22.175Z,4.50
2023-02-14T04:57:25.671Z,3.50
2023-02-14T04:58:29.164Z,3.75
2023-02-14T04:59:32.880Z,3.50
2023-02-14T05:00:36.402Z,3.00
2023-02-14T05:01:39.971Z,4.00
2023-02-14T05:02:43.482Z,4.00
2023-02-14T05:03:47.113Z,4.50
2023-02-14T05:04:50.747Z,5.00
2023-02-14T05:05:54.355Z,4.75
2023-02-14T05:06:57.930Z,3.50
2023-02-14T05:08:01.562Z,2.75
2023-02-14T05:09:05.371Z,4.50
2023-02-14T05:10:08.988Z,4.50
2023-02-14T05:11:12.892Z,3.00
2023-02-14T05:12:16.729Z,3.50
2023-02-14T05:13:20.390Z,3.00
2023-02-14T05:14:24.085Z,3.00
2023-02-14T05:15:27.821Z,3.25
2023-02-14T05:16:31.620Z,4.00
2023-02-14T05:17:35.302Z,2.50
2023-02-14T05:18:39.053Z,3.00
2023-02-14T05:19:42.735Z,3.00
2023-02-14T05:20:46.130Z,2.50
2023-02-14T05:21:49.725Z,1.75
2023-02-14T05:22:53.179Z,3.00
2023-02-14T05:23:56.649Z,2.75
2023-02-14T05:25:00.005Z,3.00
2023-02-14T05:26:03.429Z,3.00
2023-02-14T05:27:06.912Z,3.00
2023-02-14T05:28:10.307Z,2.50
2023-02-14T05:29:13.736Z,2.50
2023-02-14T05:30:17.228Z,3.00
2023-02-14T05:31:20.862Z,3.75
2023-02-14T05:32:24.411Z,3.50
2023-02-14T05:33:27.900Z,2.75
2023-02-14T05:34:31.429Z,2.00
2023-02-14T05:35:34.868Z,1.50
2023-02-14T05:36:38.496Z,1.50
2023-02-14T05:37:41.949Z,1.20
2023-02-14T05:38:45.408Z,1.50
2023-02-14T05:39:48.961Z,2.00
2023-02-14T05:40:52.488Z,1.75
2023-02-14T05:41:57.062Z,2.20
2023-02-14T05:43:00.550Z,2.75
2023-02-14T05:44:03.948Z,3.50
2023-02-14T05:45:07.375Z,3.00
2023-02-14T05:46:10.885Z,3.00
2023-02-14T05:47:14.386Z,2.75
2023-02-14T05:48:18.193Z,2.75
2023-02-14T05:49:21.614Z,2.00
2023-02-14T05:50:25.396Z,1.75
2023-02-14T05:51:29.244Z,2.00
2023-02-14T05:52:32.679Z,2.00
2023-02-14T05:53:36.269Z,2.00
2023-02-14T05:54:39.635Z,2.50
2023-02-14T05:55:43.098Z,4.50
2023-02-14T05:56:46.717Z,3.50
2023-02-14T05:57:50.155Z,2.00
2023-02-14T05:58:53.599Z,1.50
2023-02-14T05:59:57.091Z,1.00
2023-02-14T06:01:00.879Z,3.00
2023-02-14T06:02:04.504Z,4.00
2023-02-14T06:03:08.304Z,2.75
2023-02-14T06:04:11.758Z,2.50
2023-02-14T06:05:15.382Z,3.00
2023-02-14T06:06:18.855Z,4.00
2023-02-14T06:07:22.258Z,2.00
2023-02-14T06:08:25.669Z,3.50
2023-02-14T06:09:29.234Z,3.50
2023-02-14T06:10:32.776Z,2.50
2023-02-14T06:11:36.224Z,3.25
2023-02-14T06:12:39.619Z,2.50
2023-02-14T06:13:43.198Z,3.25
2023-02-14T06:14:46.878Z,2.75
2023-02-14T06:15:50.695Z,3.00
2023-02-14T06:16:54.464Z,2.00
2023-02-14T06:17:58.132Z,1.75
2023-02-14T06:19:01.811Z,2.00
2023-02-14T06:20:05.229Z,2.25
2023-02-14T06:21:09.019Z,2.50
2023-02-14T06:22:12.524Z,2.50
2023-02-14T06:23:16.095Z,2.75
2023-02-14T06:24:19.498Z,4.50
2023-02-14T06:25:22.965Z,4.25
2023-02-14T06:26:26.435Z,4.00
2023-02-14T06:27:29.842Z,3.25
2023-02-14T06:28:33.336Z,3.50
2023-02-14T06:29:36.843Z,2.00
2023-02-14T06:30:40.539Z,2.50
2023-02-14T06:31:44.353Z,2.25
2023-02-14T06:32:48.136Z,2.00
2023-02-14T06:33:51.848Z,3.25
2023-02-14T06:34:55.536Z,4.25
2023-02-14T06:35:59.119Z,3.00
2023-02-14T06:37:02.861Z,2.50
2023-02-14T06:38:06.537Z,1.50
2023-02-14T06:39:10.294Z,2.50
2023-02-14T06:40:13.776Z,4.00
2023-02-14T06:41:17.428Z,2.50
2023-02-14T06:42:21.082Z,2.00
2023-02-14T06:43:24.601Z,1.00
2023-02-14T06:44:28.127Z,1.50
2023-02-14T06:45:31.512Z,1.50
2023-02-14T06:46:35.093Z,1.75
2023-02-14T06:47:38.672Z,2.50
2023-02-14T06:48:42.197Z,2.00
2023-02-14T06:49:45.645Z,2.50
2023-02-14T06:50:49.139Z,3.50
2023-02-14T06:51:52.611Z,3.00
2023-02-14T06:52:56.158Z,2.00
2023-02-14T06:53:59.549Z,2.00
2023-02-14T06:55:03.041Z,2.00
2023-02-14T06:56:06.616Z,3.00
2023-02-14T06:57:10.084Z,3.25
2023-02-14T06:58:14.687Z,3.50
2023-02-14T06:59:18.257Z,3.00
2023-02-14T07:00:21.697Z,3.50
2023-02-14T07:01:25.205Z,3.00
2023-02-14T07:02:29.001Z,4.25
2023-02-14T07:03:32.515Z,4.00
2023-02-14T07:04:35.936Z,3.00
2023-02-14T07:05:39.291Z,2.75
2023-02-14T07:06:43.040Z,2.00
2023-02-14T07:07:46.905Z,2.00
2023-02-14T07:08:50.669Z,4.50
2023-02-14T07:09:54.412Z,3.00
2023-02-14T07:10:58.329Z,2.75
2023-02-14T07:12:02.489Z,2.00
2023-02-14T07:13:06.180Z,2.00
2023-02-14T07:14:09.874Z,2.00
2023-02-14T07:15:13.667Z,4.00
2023-02-14T07:16:17.472Z,4.75
2023-02-14T07:17:21.228Z,4.00
2023-02-14T07:18:25.177Z,4.00
2023-02-14T07:19:28.962Z,4.00
2023-02-14T07:20:32.678Z,3.50
2023-02-14T07:21:36.540Z,3.00
2023-02-14T07:22:40.357Z,4.00
2023-02-14T07:23:43.733Z,3.00
2023-02-14T07:24:47.496Z,3.00
2023-02-14T07:25:51.177Z,2.50
2023-02-14T07:26:54.595Z,2.50
2023-02-14T07:27:58.484Z,3.50
2023-02-14T07:29:01.980Z,4.00
2023-02-14T07:30:05.589Z,2.75
2023-02-14T07:31:09.345Z,2.00
2023-02-14T07:32:14.107Z,2.00
2023-02-14T07:33:17.593Z,3.00
2023-02-14T07:34:21.037Z,3.50
2023-02-14T07:35:24.395Z,3.75
2023-02-14T07:36:27.815Z,4.25
2023-02-14T07:37:31.230Z,3.00
2023-02-14T07:38:34.967Z,3.50
2023-02-14T07:39:38.641Z,4.75
2023-02-14T07:40:43.964Z,4.00
2023-02-14T07:41:47.520Z,2.50
2023-02-14T07:42:51.041Z,2.50
2023-02-14T07:43:54.456Z,3.00
2023-02-14T07:44:57.874Z,2.00
2023-02-14T07:46:01.307Z,2.75
2023-02-14T07:47:04.774Z,2.50
2023-02-14T07:49:24.850Z,3.00
2023-02-14T07:50:28.355Z,2.00
2023-02-14T07:51:31.935Z,2.00
2023-02-14T07:52:35.531Z,3.00
2023-02-14T07:53:39.085Z,4.00
2023-02-14T07:54:42.517Z,3.25
2023-02-14T07:55:46.091Z,1.00
2023-02-14T07:56:49.807Z,1.50
2023-02-14T07:57:53.446Z,1.75
2023-02-14T07:58:57.132Z,2.50
2023-02-14T08:00:00.870Z,3.00
2023-02-14T08:01:04.607Z,3.50
2023-02-14T08:02:08.017Z,3.00
2023-02-14T08:03:11.743Z,2.50
2023-02-14T08:04:15.899Z,1.75
2023-02-14T08:05:19.341Z,2.00
2023-02-14T08:06:23.093Z,2.50
2023-02-14T08:07:26.735Z,3.00
2023-02-14T08:08:30.384Z,3.25
2023-02-14T08:09:34.066Z,2.25
2023-02-14T08:10:37.583Z,1.50
2023-02-14T08:11:41.289Z,3.00
2023-02-14T08:12:44.971Z,2.50
2023-02-14T08:13:48.681Z,2.50
2023-02-14T08:14:52.492Z,3.25
2023-02-14T08:15:56.327Z,2.25
2023-02-14T08:16:59.936Z,3.00
2023-02-14T08:18:03.679Z,4.50
2023-02-14T08:19:07.295Z,5.00
2023-02-14T08:20:11.210Z,3.50
2023-02-14T08:21:17.774Z,4.00
2023-02-14T08:22:21.110Z,3.00
2023-02-14T08:23:24.591Z,4.00
2023-02-14T08:24:28.073Z,3.00
2023-02-14T08:25:31.475Z,3.00
2023-02-14T08:26:34.919Z,3.00
2023-02-14T08:27:38.328Z,3.00
2023-02-14T08:28:41.712Z,2.50
2023-02-14T08:29:45.384Z,3.25
2023-02-14T08:30:48.797Z,4.00
2023-02-14T08:31:52.339Z,4.50
2023-02-14T08:32:55.833Z,5.00
2023-02-14T08:34:00.091Z,4.00
2023-02-14T08:35:03.511Z,2.75
2023-02-14T08:36:06.985Z,2.00
2023-02-14T08:37:10.501Z,4.00
2023-02-14T08:38:13.909Z,4.00
2023-02-14T08:39:17.305Z,3.50
2023-02-14T08:40:20.849Z,3.00
2023-02-14T08:41:24.313Z,3.75
2023-02-14T08:42:27.733Z,2.25
2023-02-14T08:43:32.248Z,2.50
2023-02-14T08:44:35.744Z,3.25
2023-02-14T08:45:39.121Z,3.50
2023-02-14T08:46:42.799Z,6.50
2023-02-14T08:47:46.281Z,6.00
2023-02-14T08:48:49.728Z,4.50
2023-02-14T08:49:53.208Z,4.25
2023-02-14T08:50:56.935Z,4.25
2023-02-14T08:52:05.700Z,3.50
2023-02-14T08:53:09.374Z,5.00
2023-02-14T08:54:12.920Z,3.00
2023-02-14T08:55:16.343Z,4.00
2023-02-14T08:56:19.984Z,4.00
2023-02-14T08:57:23.670Z,3.50
2023-02-14T08:58:27.282Z,5.25
2023-02-14T08:59:31.033Z,5.00
2023-02-14T09:00:34.500Z,5.00
2023-02-14T09:01:38.558Z,5.00
2023-02-14T09:02:42.246Z,4.50
2023-02-14T09:03:45.978Z,3.00
2023-02-14T09:04:51.313Z,2.67
2023-02-14T09:05:59.608Z,3.00
2023-02-14T09:07:03.244Z,3.00
2023-02-14T09:08:06.797Z,3.50
2023-02-14T09:09:10.286Z,4.00
2023-02-14T09:10:13.801Z,4.00
2023-02-14T09:11:17.321Z,3.25
2023-02-14T09:12:20.747Z,5.00
2023-02-14T09:13:24.270Z,4.75
2023-02-14T09:14:27.831Z,4.50
2023-02-14T09:15:31.143Z,5.00
2023-02-14T09:16:34.725Z,5.50
2023-02-14T09:17:38.208Z,6.00
2023-02-14T09:18:41.682Z,5.50
2023-02-14T09:19:45.074Z,4.25
2023-02-14T09:20:48.546Z,3.75
2023-02-14T09:21:52.215Z,4.00
2023-02-14T09:22:55.629Z,5.00
2023-02-14T09:23:59.129Z,6.50
2023-02-14T09:25:02.553Z,6.00
2023-02-14T09:26:05.900Z,4.50
2023-02-14T09:27:09.276Z,4.50
2023-02-14T09:28:12.910Z,5.00
2023-02-14T09:29:16.495Z,5.75
2023-02-14T09:30:20.157Z,6.50
2023-02-14T09:31:23.698Z,5.50
2023-02-14T09:32:27.284Z,5.25
2023-02-14T09:33:30.757Z,5.75
2023-02-14T09:34:34.415Z,6.00
2023-02-14T09:35:38.124Z,6.00
2023-02-14T09:36:41.490Z,5.75
2023-02-14T09:37:45.286Z,5.00
2023-02-14T09:38:48.914Z,5.25
2023-02-14T09:39:52.369Z,4.50
2023-02-14T09:40:56.136Z,5.00
2023-02-14T09:41:59.936Z,5.00
2023-02-14T09:43:03.683Z,6.00
2023-02-14T09:44:07.382Z,5.00
2023-02-14T09:45:11.004Z,5.50
2023-02-14T09:46:14.841Z,5.25
2023-02-14T09:47:18.470Z,5.00
2023-02-14T09:48:21.860Z,5.25
2023-02-14T09:49:25.415Z,4.50
2023-02-14T09:50:29.156Z,6.00
2023-02-14T09:51:32.861Z,7.00
2023-02-14T09:52:36.524Z,6.25
2023-02-14T09:53:40.207Z,5.50
2023-02-14T09:54:43.869Z,6.25
2023-02-14T09:55:47.284Z,7.00
2023-02-14T09:56:51.900Z,6.00
2023-02-14T09:57:55.842Z,5.50
2023-02-14T09:58:59.568Z,5.00
2023-02-14T10:00:03.251Z,5.50
2023-02-14T10:01:06.925Z,5.00
2023-02-14T10:02:11.091Z,4.25
2023-02-14T10:03:14.791Z,3.50
2023-02-14T10:04:18.241Z,5.00
2023-02-14T10:05:21.929Z,5.50
2023-02-14T10:06:25.399Z,4.00
2023-02-14T10:07:30.433Z,5.00
2023-02-14T10:08:33.452Z,4.75
2023-02-14T10:09:36.892Z,5.50
2023-02-14T10:10:40.336Z,6.00
2023-02-14T10:11:43.799Z,5.00
2023-02-14T10:12:47.266Z,4.50
2023-02-14T10:13:50.717Z,4.00
2023-02-14T10:14:54.074Z,3.75
2023-02-14T10:15:57.673Z,5.00
2023-02-14T10:17:01.094Z,5.75
2023-02-14T10:18:04.572Z,5.00
2023-02-14T10:19:08.290Z,4.25
2023-02-14T10:20:11.714Z,4.25
2023-02-14T10:21:15.095Z,3.50
2023-02-14T10:22:18.603Z,3.50
2023-02-14T10:23:22.341Z,4.25
2023-02-14T10:24:25.954Z,5.50
2023-02-14T10:25:29.608Z,6.00
2023-02-14T10:26:33.470Z,6.00
2023-02-14T10:27:37.156Z,5.00
2023-02-14T10:28:40.823Z,4.75
2023-02-14T10:29:44.298Z,5.50
2023-02-14T10:30:47.921Z,5.75
2023-02-14T10:31:51.612Z,5.50
2023-02-14T10:32:55.531Z,5.00
2023-02-14T10:33:59.193Z,4.00
2023-02-14T10:35:02.852Z,4.25
2023-02-14T10:36:06.551Z,5.00
2023-02-14T10:37:10.045Z,5.50
2023-02-14T10:38:13.467Z,3.50
2023-02-14T10:39:17.146Z,3.50
2023-02-14T10:40:20.805Z,3.75
2023-02-14T10:41:24.535Z,4.50
2023-02-14T10:42:28.113Z,4.00
2023-02-14T10:43:31.788Z,4.25
2023-02-14T10:44:35.485Z,4.00
2023-02-14T10:45:39.228Z,4.25
2023-02-14T10:46:42.688Z,5.00
2023-02-14T10:47:46.143Z,5.50
2023-02-14T10:48:49.561Z,3.50
2023-02-14T10:49:54.265Z,4.00
2023-02-14T10:50:58.060Z,3.75
2023-02-14T10:52:01.953Z,3.00
2023-02-14T10:53:05.612Z,3.50
2023-02-14T10:54:09.343Z,5.00
2023-02-14T10:55:20.279Z,5.00
2023-02-14T10:56:18.067Z,5.25
2023-02-14T10:57:21.896Z,4.50
2023-02-14T10:58:25.601Z,4.00
2023-02-14T10:59:29.523Z,4.50
2023-02-14T11:00:33.234Z,4.25
2023-02-14T11:01:36.950Z,4.00
2023-02-14T11:02:40.425Z,4.00
2023-02-14T11:03:44.239Z,4.80
2023-02-14T11:04:47.829Z,5.25
2023-02-14T11:05:51.355Z,4.50
2023-02-14T11:06:54.790Z,4.00
2023-02-14T11:07:58.352Z,3.00
2023-02-14T11:09:01.768Z,3.50
2023-02-14T11:10:05.281Z,4.50
2023-02-14T11:11:08.759Z,5.00
2023-02-14T11:12:12.132Z,6.00
2023-02-14T11:13:15.533Z,5.50
2023-02-14T11:15:22.301Z,4.75
2023-02-14T11:16:25.681Z,4.00
2023-02-14T11:17:29.029Z,3.00
2023-02-14T11:18:32.420Z,3.50
2023-02-14T11:19:37.337Z,3.00
2023-02-14T11:20:40.434Z,2.50
2023-02-14T11:21:43.852Z,4.00
2023-02-14T11:22:47.329Z,3.50
2023-02-14T11:23:51.072Z,3.50
2023-02-14T11:24:54.574Z,3.75
2023-02-14T11:25:58.403Z,2.75
2023-02-14T11:27:01.937Z,3.00
2023-02-14T11:28:05.465Z,3.00
2023-02-14T11:29:08.913Z,4.00
2023-02-14T11:30:12.683Z,5.00
2023-02-14T11:31:16.178Z,5.00
2023-02-14T11:32:19.989Z,4.00
2023-02-14T11:33:23.455Z,5.00
2023-02-14T11:34:26.858Z,5.00
2023-02-14T11:35:30.237Z,4.50
2023-02-14T11:36:33.841Z,3.25
2023-02-14T11:37:37.427Z,3.00
2023-02-14T11:38:40.876Z,3.50
2023-02-14T11:39:44.278Z,3.00
2023-02-14T11:40:47.814Z,4.80
2023-02-14T11:41:51.434Z,4.50
2023-02-14T11:43:06.318Z,4.00
2023-02-14T11:43:59.877Z,5.25
2023-02-14T11:45:03.559Z,4.00
2023-02-14T11:46:07.300Z,3.25
2023-02-14T11:47:11.293Z,4.50
2023-02-14T11:48:16.194Z,4.00
2023-02-14T11:49:19.514Z,3.50
2023-02-14T11:50:23.117Z,2.25
2023-02-14T11:51:26.935Z,3.00
2023-02-14T11:52:30.473Z,4.50
2023-02-14T11:53:34.061Z,3.50
2023-02-14T11:54:37.745Z,2.50
2023-02-14T11:55:41.169Z,4.00
2023-02-14T11:56:44.794Z,5.50
2023-02-14T11:57:48.270Z,5.00
2023-02-14T11:58:51.852Z,3.00
2023-02-14T11:59:55.855Z,3.00
2023-02-14T12:00:59.479Z,2.75
2023-02-14T12:02:03.024Z,4.50
2023-02-14T12:03:06.542Z,5.00
2023-02-14T12:04:10.053Z,5.00
2023-02-14T12:05:13.752Z,3.25
2023-02-14T12:06:17.205Z,3.75
2023-02-14T12:07:20.578Z,2.75
2023-02-14T12:08:24.040Z,4.00
2023-02-14T12:09:27.384Z,3.40
2023-02-14T12:10:30.782Z,4.00
2023-02-14T12:11:34.251Z,3.00
2023-02-14T12:12:37.696Z,4.00
2023-02-14T12:13:41.175Z,5.00
2023-02-14T12:14:44.689Z,5.00
2023-02-14T12:15:48.116Z,3.50
2023-02-14T12:16:51.632Z,2.00
2023-02-14T12:17:55.024Z,3.25
2023-02-14T12:18:58.454Z,3.50
2023-02-14T12:20:01.877Z,3.75
2023-02-14T12:21:05.275Z,3.75
2023-02-14T12:22:08.683Z,3.50
2023-02-14T12:23:12.115Z,5.00
2023-02-14T12:24:15.476Z,5.00
2023-02-14T12:25:19.155Z,4.00
2023-02-14T12:26:22.551Z,4.40
2023-02-14T12:27:25.978Z,3.25
2023-02-14T12:28:29.496Z,3.00
2023-02-14T12:29:33.612Z,4.00
2023-02-14T12:30:37.157Z,3.50
2023-02-14T12:31:40.723Z,3.00
2023-02-14T12:32:44.277Z,3.00
2023-02-14T12:33:49.591Z,4.50
2023-02-14T12:34:52.536Z,3.50
2023-02-14T12:35:56.063Z,3.50
2023-02-14T12:36:59.914Z,3.50
2023-02-14T12:38:04.968Z,2.50
2023-02-14T12:39:08.196Z,3.50
2023-02-14T12:40:11.619Z,4.50
2023-02-14T12:41:14.990Z,3.75
2023-02-14T12:42:18.451Z,3.50
2023-02-14T12:43:21.797Z,5.50
2023-02-14T12:44:25.284Z,5.00
2023-02-14T12:45:28.921Z,5.00
2023-02-14T12:46:32.712Z,5.75
2023-02-14T12:47:36.169Z,5.00
2023-02-14T12:48:39.851Z,5.00
2023-02-14T12:49:43.270Z,3.50
2023-02-14T12:50:46.783Z,3.00
2023-02-14T12:51:50.265Z,3.00
2023-02-14T12:52:53.686Z,4.00
2023-02-14T12:53:57.221Z,4.75
2023-02-14T12:55:00.873Z,5.00
2023-02-14T12:56:04.353Z,3.25
2023-02-14T12:57:07.818Z,3.00
2023-02-14T12:58:11.272Z,5.50
2023-02-14T12:59:15.081Z,5.50
2023-02-14T13:00:18.638Z,4.00
2023-02-14T13:01:28.656Z,3.00
2023-02-14T13:02:27.454Z,4.00
2023-02-14T13:03:31.011Z,3.50
2023-02-14T13:04:34.463Z,4.00
2023-02-14T13:05:37.792Z,4.00
2023-02-14T13:06:41.205Z,4.00
2023-02-14T13:07:44.623Z,4.00
2023-02-14T13:08:48.039Z,3.00
2023-02-14T13:09:51.566Z,3.50
2023-02-14T13:10:55.027Z,3.50
2023-02-14T13:11:58.576Z,4.00
2023-02-14T13:13:02.024Z,3.50
2023-02-14T13:14:05.512Z,3.00
2023-02-14T13:15:08.936Z,4.00
2023-02-14T13:16:12.371Z,3.00
2023-02-14T13:17:15.899Z,3.00
2023-02-14T13:18:19.486Z,4.25
2023-02-14T13:19:23.137Z,3.50
2023-02-14T13:20:26.658Z,3.00
2023-02-14T13:21:30.642Z,5.25
2023-02-14T13:22:34.320Z,6.00
2023-02-14T13:23:38.000Z,4.50
2023-02-14T13:24:41.503Z,3.50
2023-02-14T13:25:45.060Z,3.00
2023-02-14T13:26:48.552Z,3.50
2023-02-14T13:27:52.065Z,4.00
2023-02-14T13:28:55.713Z,4.50
2023-02-14T13:29:59.222Z,5.00
2023-02-14T13:31:03.095Z,4.50
2023-02-14T13:32:06.883Z,4.00
2023-02-14T13:33:10.369Z,4.50
2023-02-14T13:34:13.792Z,4.00
2023-02-14T13:35:17.292Z,5.00
2023-02-14T13:36:20.964Z,5.20
2023-02-14T13:37:24.552Z,5.50
2023-02-14T13:38:28.255Z,5.00
2023-02-14T13:39:34.307Z,4.00
2023-02-14T13:40:36.544Z,3.00
2023-02-14T13:41:39.974Z,2.75
2023-02-14T13:42:43.346Z,3.75
2023-02-14T13:43:46.777Z,3.25
2023-02-14T13:44:50.458Z,4.00
2023-02-14T13:45:54.008Z,3.00
2023-02-14T13:46:57.491Z,2.75
2023-02-14T13:48:00.954Z,2.00
2023-02-14T13:49:04.359Z,2.25
2023-02-14T13:50:08.080Z,3.25
2023-02-14T13:51:11.445Z,4.50
2023-02-14T13:52:14.854Z,4.75
2023-02-14T13:53:18.276Z,3.20
2023-02-14T13:54:22.250Z,2.50
2023-02-14T13:55:25.829Z,3.50
2023-02-14T13:56:29.276Z,4.00
2023-02-14T13:57:32.783Z,3.25
2023-02-14T13:58:36.405Z,5.00
2023-02-14T13:59:39.749Z,4.00
2023-02-14T14:00:43.243Z,2.00
2023-02-14T14:01:46.661Z,2.75
2023-02-14T14:02:50.144Z,3.75
2023-02-14T14:03:53.504Z,6.50
2023-02-14T14:04:57.001Z,5.50
2023-02-14T14:06:00.973Z,4.75
2023-02-14T14:07:04.677Z,4.50
2023-02-14T14:08:08.227Z,3.00
2023-02-14T14:09:11.708Z,3.00